Airfield :







YOU CAN JOIN US ON...

 
LOGIN :

Register | Disclaimer

   EN    FR    IT 

 









Legend :    VFR   Marginal VFR   IFR   Intensive IFR   Very Intensive IFR
Visi :
Ceiling :
>= 8 km
>= 3000ft
5 to 8 km
1000 to 3000 ft
1500m to 5 km
500 to 1000 ft
800 to 1500m
200 to 500 ft
< 800m
< 200 ft
Symbols :   Thunderstorms  Fog  Heavy snow  Heavy precipitations  Wind > 20 kt






- Airport Elevation : 352 ft


KAUG - Augusta State

CURRENT METAR :
  • 242353Z AUTO 15007KT 10SM BKN014 OVC021 19/17 A3019 RMK AO2 SLP222 60001 T01940172 10222 20194 53001

EXPIRED METARs :
  • 242317Z AUTO 10SM SCT012 OVC021 20/18 A3019 RMK AO2 T02000178
  • 242253Z AUTO 15007KT 10SM BKN012 BKN019 OVC070 21/18 A3018 RMK AO2 SLP219 T02060178
  • 242244Z AUTO 14007KT 10SM BKN012 BKN019 OVC070 21/18 A3018 RMK AO2 T02060178
  • 242230Z AUTO 17007KT 10SM SCT012 BKN021 OVC070 21/18 A3018 RMK AO2 T02060178
  • 242210Z AUTO 17005KT 10SM BKN012 BKN024 OVC032 21/18 A3018 RMK AO2 T02060178
  • 242144Z AUTO 10SM SCT024 OVC032 21/18 A3018 RMK AO2 T02110178
  • 242109Z AUTO 15008KT 10SM FEW016 BKN028 OVC041 21/18 A3018 RMK AO2 T02110178
  • 242053Z AUTO 16005KT 10SM BKN032 OVC041 22/18 A3018 RMK AO2 SLP221 60001 T02220183 58012
  • 241953Z AUTO 18005KT 10SM FEW012 FEW021 OVC033 22/19 A3020 RMK AO2 SLP226 T02170189

TAF KAUG
Valid from the 25 at 00:00 until the 26 at 00:00 UTC


250002Z 2500/2524 15007KT P6SM BKN014 OVC021
FM250100 15005KT 2SM BR OVC005
FM250300 15004KT 1SM BR OVC002
FM251400 16005KT P6SM BKN008
FM251600 17005KT P6SM BKN025
KZBW FIR / North America



MET'MAP, your aeronautical weather chart ! - Copyright ORBIFLY December 2007 - Disclaimer

ORBIFLY MET'MAP TEAM :

Programming & Development : Alexandra Zaïnal
Original concept : Baudouin d'Aumeries
Technical & hardware support : Manuel Goepfert
Assistance : Marc-Olivier Méhu




SOURCES & CREDITS :

   NOAA